PWSweather.com
Personal Weather Stations
Station Observations
KOMOKA
Komoka Village, Komoka, ON N0L IRO

Komoka VillageKomoka, ON N0L IRO

Lat: 42.9542444, Lon: -81.4348861

Elevation: 805

Station Type: Davis Vantage Pro 2

Latest ConditionsUpdated 7:42:51 AM EDT Thursday, Sep 29, 2016
Currently Today's Max Today's Min Today's Average
Temperature 61.0°F16.1°C 62.2°F16.8°C 59.4°F15.2°C 61.0°F16.1°C
Dew Point 56.3°F13.5°C 57.9°F14.4°C 55.4°F13.0°C 56.5°F13.6°C
Winds 7.0 mph ENE11.3 kmh ENE 8.0 mph ENE12.9 kmh ENE - 4.8 mph 7.7 kmh
Wind Gusts 24.0 mph38.6 kmh 29.0 mph46.7 kmh - -
Humidity 85% 87% 83% 85%
Pressure 30.12 in1020.0 mb 30.12 in1020.0 mb 30.04 in1017.3 mb -
Precipitation - 0.01 in0.3 mm - -
Hour Temp Dew Point Humidity Winds Wind Gusts Pressure Precip Precip Rate Daily Precip Total
07:42 AM 61.0°F16.1°C 56.3°F13.5°C 85% 7.0 mph ENE11.3 kmh ENE 24.0 mph38.6 kmh 30.12 in1020.0 mb 0.00 in0.0 mm 0.00 in0.0 mm 0.01 in0.3 mm
07:35 AM 61.0°F16.1°C 56.5°F13.6°C 85% 7.0 mph ENE11.3 kmh ENE 24.0 mph38.6 kmh 30.12 in1020.0 mb 0.00 in0.0 mm 0.00 in0.0 mm 0.01 in0.3 mm
07:28 AM 61.0°F16.1°C 56.3°F13.5°C 85% 7.0 mph ENE11.3 kmh ENE 20.0 mph32.2 kmh 30.11 in1019.6 mb 0.00 in0.0 mm 0.00 in0.0 mm 0.01 in0.3 mm
07:21 AM 61.0°F16.1°C 56.3°F13.5°C 85% 7.0 mph ENE11.3 kmh ENE 20.0 mph32.2 kmh 30.11 in1019.6 mb 0.00 in0.0 mm 0.00 in0.0 mm 0.01 in0.3 mm
07:14 AM 60.8°F16.0°C 56.3°F13.5°C 85% 5.0 mph ENE8.0 kmh ENE 17.0 mph27.4 kmh 30.11 in1019.6 mb 0.00 in0.0 mm 0.00 in0.0 mm 0.01 in0.3 mm
07:07 AM 60.6°F15.9°C 56.1°F13.4°C 85% 7.0 mph NE11.3 kmh NE 19.0 mph30.6 kmh 30.10 in1019.3 mb 0.00 in0.0 mm 0.00 in0.0 mm 0.01 in0.3 mm
07:00 AM 60.4°F15.8°C 56.3°F13.5°C 86% 5.0 mph NE8.0 kmh NE 21.0 mph33.8 kmh 30.10 in1019.3 mb 0.00 in0.0 mm 0.00 in0.0 mm 0.01 in0.3 mm
06:53 AM 60.4°F15.8°C 56.1°F13.4°C 86% 5.0 mph NE8.0 kmh NE 21.0 mph33.8 kmh 30.10 in1019.3 mb 0.00 in0.0 mm 0.00 in0.0 mm 0.01 in0.3 mm
06:46 AM 60.3°F15.7°C 56.1°F13.4°C 86% 7.0 mph ENE11.3 kmh ENE 24.0 mph38.6 kmh 30.09 in1019.0 mb 0.00 in0.0 mm 0.00 in0.0 mm 0.01 in0.3 mm
06:39 AM 60.1°F15.6°C 56.1°F13.4°C 87% 8.0 mph NE12.9 kmh NE 24.0 mph38.6 kmh 30.10 in1019.3 mb 0.00 in0.0 mm 0.00 in0.0 mm 0.01 in0.3 mm
06:32 AM 59.7°F15.4°C 55.9°F13.3°C 87% 8.0 mph ENE12.9 kmh ENE 29.0 mph46.7 kmh 30.09 in1019.0 mb 0.00 in0.0 mm 0.00 in0.0 mm 0.01 in0.3 mm
06:25 AM 59.5°F15.3°C 55.8°F13.2°C 87% 7.0 mph ENE11.3 kmh ENE 29.0 mph46.7 kmh 30.09 in1019.0 mb 0.01 in0.3 mm 0.00 in0.0 mm 0.01 in0.3 mm
06:18 AM 59.5°F15.3°C 55.6°F13.1°C 87% 5.0 mph ENE8.0 kmh ENE 16.0 mph25.7 kmh 30.09 in1019.0 mb 0.01 in0.3 mm 0.00 in0.0 mm 0.01 in0.3 mm
06:11 AM 59.4°F15.2°C 55.4°F13.0°C 87% 5.0 mph NE8.0 kmh NE 17.0 mph27.4 kmh 30.09 in1019.0 mb 0.01 in0.3 mm 0.00 in0.0 mm 0.01 in0.3 mm
06:04 AM 59.4°F15.2°C 55.4°F13.0°C 87% 5.0 mph NE8.0 kmh NE 19.0 mph30.6 kmh 30.09 in1019.0 mb 0.01 in0.3 mm 0.00 in0.0 mm 0.01 in0.3 mm
05:57 AM 59.4°F15.2°C 55.4°F13.0°C 87% 5.0 mph ENE8.0 kmh ENE 17.0 mph27.4 kmh 30.09 in1019.0 mb 0.01 in0.3 mm 0.00 in0.0 mm 0.01 in0.3 mm
05:50 AM 59.4°F15.2°C 55.6°F13.1°C 87% 5.0 mph NE8.0 kmh NE 15.0 mph24.1 kmh 30.09 in1019.0 mb 0.01 in0.3 mm 0.00 in0.0 mm 0.01 in0.3 mm
05:43 AM 59.5°F15.3°C 55.8°F13.2°C 87% 7.0 mph NE11.3 kmh NE 23.0 mph37.0 kmh 30.09 in1019.0 mb 0.01 in0.3 mm 0.00 in0.0 mm 0.01 in0.3 mm
05:36 AM 59.9°F15.5°C 55.8°F13.2°C 86% 4.0 mph ENE6.4 kmh ENE 16.0 mph25.7 kmh 30.09 in1019.0 mb 0.01 in0.3 mm 0.00 in0.0 mm 0.01 in0.3 mm
05:29 AM 60.1°F15.6°C 55.9°F13.3°C 86% 4.0 mph ENE6.4 kmh ENE 12.0 mph19.3 kmh 30.08 in1018.6 mb 0.01 in0.3 mm 0.09 in2.3 mm 0.01 in0.3 mm
05:22 AM 60.3°F15.7°C 55.8°F13.2°C 85% 5.0 mph ENE8.0 kmh ENE 16.0 mph25.7 kmh 30.08 in1018.6 mb 0.00 in0.0 mm 0.00 in0.0 mm 0.00 in0.0 mm
05:15 AM 60.4°F15.8°C 55.9°F13.3°C 85% 7.0 mph ENE11.3 kmh ENE 15.0 mph24.1 kmh 30.08 in1018.6 mb 0.00 in0.0 mm 0.00 in0.0 mm 0.00 in0.0 mm
05:08 AM 60.4°F15.8°C 55.9°F13.3°C 85% 4.0 mph ENE6.4 kmh ENE 19.0 mph30.6 kmh 30.08 in1018.6 mb 0.00 in0.0 mm 0.00 in0.0 mm 0.00 in0.0 mm
05:01 AM 60.4°F15.8°C 55.9°F13.3°C 85% 5.0 mph NE8.0 kmh NE 19.0 mph30.6 kmh 30.08 in1018.6 mb 0.00 in0.0 mm 0.00 in0.0 mm 0.00 in0.0 mm
04:54 AM 60.6°F15.9°C 56.1°F13.4°C 85% 5.0 mph NE8.0 kmh NE 16.0 mph25.7 kmh 30.08 in1018.6 mb 0.00 in0.0 mm 0.00 in0.0 mm 0.00 in0.0 mm
04:47 AM 60.8°F16.0°C 56.3°F13.5°C 85% 7.0 mph ENE11.3 kmh ENE 16.0 mph25.7 kmh 30.07 in1018.3 mb 0.00 in0.0 mm 0.00 in0.0 mm 0.00 in0.0 mm
04:40 AM 60.8°F16.0°C 55.9°F13.3°C 84% 7.0 mph ENE11.3 kmh ENE 17.0 mph27.4 kmh 30.07 in1018.3 mb 0.00 in0.0 mm 0.00 in0.0 mm 0.00 in0.0 mm
04:33 AM 61.0°F16.1°C 56.1°F13.4°C 84% 5.0 mph ENE8.0 kmh ENE 21.0 mph33.8 kmh 30.07 in1018.3 mb 0.00 in0.0 mm 0.00 in0.0 mm 0.00 in0.0 mm
04:26 AM 61.2°F16.2°C 56.3°F13.5°C 84% 5.0 mph NE8.0 kmh NE 19.0 mph30.6 kmh 30.07 in1018.3 mb 0.00 in0.0 mm 0.00 in0.0 mm 0.00 in0.0 mm
04:19 AM 61.2°F16.2°C 55.9°F13.3°C 83% 7.0 mph NE11.3 kmh NE 19.0 mph30.6 kmh 30.06 in1017.9 mb 0.00 in0.0 mm 0.00 in0.0 mm 0.00 in0.0 mm
04:12 AM 61.2°F16.2°C 56.3°F13.5°C 84% 5.0 mph ENE8.0 kmh ENE 17.0 mph27.4 kmh 30.06 in1017.9 mb 0.00 in0.0 mm 0.00 in0.0 mm 0.00 in0.0 mm
04:05 AM 61.2°F16.2°C 55.9°F13.3°C 83% 4.0 mph ENE6.4 kmh ENE 11.0 mph17.7 kmh 30.06 in1017.9 mb 0.00 in0.0 mm 0.00 in0.0 mm 0.00 in0.0 mm
03:58 AM 61.3°F16.3°C 56.5°F13.6°C 84% 5.0 mph ENE8.0 kmh ENE 13.0 mph20.9 kmh 30.06 in1017.9 mb 0.00 in0.0 mm 0.00 in0.0 mm 0.00 in0.0 mm
03:51 AM 61.2°F16.2°C 56.3°F13.5°C 84% 5.0 mph ENE8.0 kmh ENE 19.0 mph30.6 kmh 30.06 in1017.9 mb 0.00 in0.0 mm 0.00 in0.0 mm 0.00 in0.0 mm
03:44 AM 61.2°F16.2°C 56.3°F13.5°C 84% 5.0 mph NE8.0 kmh NE 20.0 mph32.2 kmh 30.05 in1017.6 mb 0.00 in0.0 mm 0.00 in0.0 mm 0.00 in0.0 mm
03:37 AM 61.2°F16.2°C 56.3°F13.5°C 84% 4.0 mph NE6.4 kmh NE 19.0 mph30.6 kmh 30.06 in1017.9 mb 0.00 in0.0 mm 0.00 in0.0 mm 0.00 in0.0 mm
03:30 AM 61.2°F16.2°C 56.3°F13.5°C 84% 4.0 mph ENE6.4 kmh ENE 16.0 mph25.7 kmh 30.06 in1017.9 mb 0.00 in0.0 mm 0.00 in0.0 mm 0.00 in0.0 mm
03:23 AM 61.2°F16.2°C 56.3°F13.5°C 84% 4.0 mph ENE6.4 kmh ENE 15.0 mph24.1 kmh 30.06 in1017.9 mb 0.00 in0.0 mm 0.00 in0.0 mm 0.00 in0.0 mm
03:16 AM 61.2°F16.2°C 56.3°F13.5°C 84% 4.0 mph ENE6.4 kmh ENE 13.0 mph20.9 kmh 30.05 in1017.6 mb 0.00 in0.0 mm 0.00 in0.0 mm 0.00 in0.0 mm
03:09 AM 61.2°F16.2°C 56.3°F13.5°C 84% 4.0 mph ENE6.4 kmh ENE 13.0 mph20.9 kmh 30.05 in1017.6 mb 0.00 in0.0 mm 0.00 in0.0 mm 0.00 in0.0 mm
03:02 AM 61.2°F16.2°C 56.3°F13.5°C 84% 4.0 mph ENE6.4 kmh ENE 13.0 mph20.9 kmh 30.05 in1017.6 mb 0.00 in0.0 mm 0.00 in0.0 mm 0.00 in0.0 mm
02:55 AM 61.2°F16.2°C 56.3°F13.5°C 84% 4.0 mph E6.4 kmh E 15.0 mph24.1 kmh 30.05 in1017.6 mb 0.00 in0.0 mm 0.00 in0.0 mm 0.00 in0.0 mm
02:48 AM 61.2°F16.2°C 56.7°F13.7°C 85% 5.0 mph ENE8.0 kmh ENE 17.0 mph27.4 kmh 30.05 in1017.6 mb 0.00 in0.0 mm 0.00 in0.0 mm 0.00 in0.0 mm
02:41 AM 61.2°F16.2°C 56.7°F13.7°C 85% 4.0 mph NE6.4 kmh NE 16.0 mph25.7 kmh 30.04 in1017.3 mb 0.00 in0.0 mm 0.00 in0.0 mm 0.00 in0.0 mm
02:34 AM 61.3°F16.3°C 56.5°F13.6°C 84% 3.0 mph ENE4.8 kmh ENE 9.0 mph14.5 kmh 30.04 in1017.3 mb 0.00 in0.0 mm 0.00 in0.0 mm 0.00 in0.0 mm
02:27 AM 61.3°F16.3°C 56.5°F13.6°C 84% 4.0 mph NE6.4 kmh NE 13.0 mph20.9 kmh 30.04 in1017.3 mb 0.00 in0.0 mm 0.00 in0.0 mm 0.00 in0.0 mm
02:20 AM 61.5°F16.4°C 56.7°F13.7°C 84% 4.0 mph NE6.4 kmh NE 15.0 mph24.1 kmh 30.05 in1017.6 mb 0.00 in0.0 mm 0.00 in0.0 mm 0.00 in0.0 mm
02:13 AM 61.5°F16.4°C 56.7°F13.7°C 84% 5.0 mph NE8.0 kmh NE 16.0 mph25.7 kmh 30.05 in1017.6 mb 0.00 in0.0 mm 0.00 in0.0 mm 0.00 in0.0 mm
02:06 AM 61.5°F16.4°C 57.0°F13.9°C 85% 3.0 mph NE4.8 kmh NE 15.0 mph24.1 kmh 30.05 in1017.6 mb 0.00 in0.0 mm 0.00 in0.0 mm 0.00 in0.0 mm
01:59 AM 61.5°F16.4°C 57.0°F13.9°C 85% 3.0 mph ENE4.8 kmh ENE 13.0 mph20.9 kmh 30.05 in1017.6 mb 0.00 in0.0 mm 0.00 in0.0 mm 0.00 in0.0 mm
01:52 AM 61.5°F16.4°C 57.0°F13.9°C 85% 4.0 mph ENE6.4 kmh ENE 19.0 mph30.6 kmh 30.05 in1017.6 mb 0.00 in0.0 mm 0.00 in0.0 mm 0.00 in0.0 mm
01:45 AM 61.5°F16.4°C 57.0°F13.9°C 85% 4.0 mph E6.4 kmh E 16.0 mph25.7 kmh 30.05 in1017.6 mb 0.00 in0.0 mm 0.00 in0.0 mm 0.00 in0.0 mm
01:38 AM 61.5°F16.4°C 57.0°F13.9°C 85% 4.0 mph ENE6.4 kmh ENE 16.0 mph25.7 kmh 30.05 in1017.6 mb 0.00 in0.0 mm 0.00 in0.0 mm 0.00 in0.0 mm
01:31 AM 61.5°F16.4°C 57.0°F13.9°C 85% 4.0 mph NE6.4 kmh NE 9.0 mph14.5 kmh 30.05 in1017.6 mb 0.00 in0.0 mm 0.00 in0.0 mm 0.00 in0.0 mm
01:24 AM 61.5°F16.4°C 57.0°F13.9°C 85% 3.0 mph NE4.8 kmh NE 9.0 mph14.5 kmh 30.05 in1017.6 mb 0.00 in0.0 mm 0.00 in0.0 mm 0.00 in0.0 mm
01:17 AM 61.7°F16.5°C 57.2°F14.0°C 85% 4.0 mph ENE6.4 kmh ENE 17.0 mph27.4 kmh 30.05 in1017.6 mb 0.00 in0.0 mm 0.00 in0.0 mm 0.00 in0.0 mm
01:10 AM 61.9°F16.6°C 57.2°F14.0°C 85% 4.0 mph ENE6.4 kmh ENE 17.0 mph27.4 kmh 30.05 in1017.6 mb 0.00 in0.0 mm 0.00 in0.0 mm 0.00 in0.0 mm
01:03 AM 61.9°F16.6°C 57.7°F14.3°C 86% 3.0 mph ENE4.8 kmh ENE 13.0 mph20.9 kmh 30.05 in1017.6 mb 0.00 in0.0 mm 0.00 in0.0 mm 0.00 in0.0 mm
12:56 AM 62.1°F16.7°C 57.7°F14.3°C 86% 4.0 mph ENE6.4 kmh ENE 17.0 mph27.4 kmh 30.05 in1017.6 mb 0.00 in0.0 mm 0.00 in0.0 mm 0.00 in0.0 mm
12:49 AM 61.9°F16.6°C 57.7°F14.3°C 86% 3.0 mph ENE4.8 kmh ENE 9.0 mph14.5 kmh 30.05 in1017.6 mb 0.00 in0.0 mm 0.00 in0.0 mm 0.00 in0.0 mm
12:42 AM 62.1°F16.7°C 57.7°F14.3°C 86% 4.0 mph NE6.4 kmh NE 16.0 mph25.7 kmh 30.05 in1017.6 mb 0.00 in0.0 mm 0.00 in0.0 mm 0.00 in0.0 mm
12:35 AM 62.1°F16.7°C 57.7°F14.3°C 86% 3.0 mph ENE4.8 kmh ENE 19.0 mph30.6 kmh 30.05 in1017.6 mb 0.00 in0.0 mm 0.00 in0.0 mm 0.00 in0.0 mm
12:28 AM 62.1°F16.7°C 57.7°F14.3°C 86% 3.0 mph E4.8 kmh E 19.0 mph30.6 kmh 30.05 in1017.6 mb 0.00 in0.0 mm 0.00 in0.0 mm 0.00 in0.0 mm
12:21 AM 62.2°F16.8°C 57.9°F14.4°C 86% 3.0 mph NE4.8 kmh NE 13.0 mph20.9 kmh 30.05 in1017.6 mb 0.00 in0.0 mm 0.00 in0.0 mm 0.00 in0.0 mm
12:14 AM 62.2°F16.8°C 57.9°F14.4°C 86% 4.0 mph NE6.4 kmh NE 20.0 mph32.2 kmh 30.05 in1017.6 mb 0.00 in0.0 mm 0.00 in0.0 mm 0.00 in0.0 mm
12:07 AM 62.1°F16.7°C 57.9°F14.4°C 86% 4.0 mph ENE6.4 kmh ENE 12.0 mph19.3 kmh 30.05 in1017.6 mb 0.00 in0.0 mm 0.00 in0.0 mm 0.00 in0.0 mm
12:00 AM 62.1°F16.7°C 57.7°F14.3°C 86% 3.0 mph ENE4.8 kmh ENE 8.0 mph12.9 kmh 30.05 in1017.6 mb 0.00 in0.0 mm 0.00 in0.0 mm 0.00 in0.0 mm